sensor_id;sensor_type;location;lat;lon;timestamp;pressure;altitude;pressure_sealevel;temperature;humidity
68199;BME280;55021;51.554;17.044;2023-05-17T00:12:36;100689.09;;;12.78;82.09
68199;BME280;55021;51.554;17.044;2023-05-17T00:27:41;100684.75;;;12.34;83.60
68199;BME280;55021;51.554;17.044;2023-05-17T00:42:43;100692.00;;;12.25;84.01
68199;BME280;55021;51.554;17.044;2023-05-17T00:57:46;100690.41;;;12.14;83.82
68199;BME280;55021;51.554;17.044;2023-05-17T01:13:07;100598.81;;;11.65;83.39
68199;BME280;55021;51.554;17.044;2023-05-17T01:28:11;100699.31;;;12.33;83.05
68199;BME280;55021;51.554;17.044;2023-05-17T01:59:01;100694.91;;;11.71;82.23
68199;BME280;55021;51.554;17.044;2023-05-17T02:14:05;100646.41;;;10.97;80.27
68199;BME280;55021;51.554;17.044;2023-05-17T02:29:20;100693.78;;;10.83;81.62
68199;BME280;55021;51.554;17.044;2023-05-17T02:44:35;100705.38;;;11.03;78.78
68199;BME280;55021;51.554;17.044;2023-05-17T02:59:57;100749.00;;;10.90;78.86
68199;BME280;55021;51.554;17.044;2023-05-17T03:15:04;100771.28;;;10.84;78.03
68199;BME280;55021;51.554;17.044;2023-05-17T03:30:26;100663.00;;;10.11;76.90
68199;BME280;55021;51.554;17.044;2023-05-17T03:45:36;100798.13;;;11.05;75.90
68199;BME280;55021;51.554;17.044;2023-05-17T04:00:41;100807.97;;;10.96;75.85
68199;BME280;55021;51.554;17.044;2023-05-17T04:15:44;100720.69;;;10.38;75.72
68199;BME280;55021;51.554;17.044;2023-05-17T04:30:46;100709.09;;;10.19;71.77
68199;BME280;55021;51.554;17.044;2023-05-17T04:46:17;100736.94;;;10.29;71.31
68199;BME280;55021;51.554;17.044;2023-05-17T05:01:21;100835.69;;;10.71;72.01
68199;BME280;55021;51.554;17.044;2023-05-17T05:16:24;100788.19;;;10.11;70.64
68199;BME280;55021;51.554;17.044;2023-05-17T05:31:27;100854.38;;;10.26;69.87
68199;BME280;55021;51.554;17.044;2023-05-17T05:46:35;100859.34;;;10.31;70.00
68199;BME280;55021;51.554;17.044;2023-05-17T06:01:40;100891.53;;;11.28;67.48
68199;BME280;55021;51.554;17.044;2023-05-17T06:16:44;100905.44;;;11.43;67.45
68199;BME280;55021;51.554;17.044;2023-05-17T06:31:50;100868.03;;;11.19;67.41
68199;BME280;55021;51.554;17.044;2023-05-17T06:46:52;100943.44;;;12.60;65.18
68199;BME280;55021;51.554;17.044;2023-05-17T07:01:57;100949.53;;;12.09;64.58
68199;BME280;55021;51.554;17.044;2023-05-17T07:17:02;100925.69;;;12.65;65.15
68199;BME280;55021;51.554;17.044;2023-05-17T07:32:05;100974.91;;;14.09;61.56
68199;BME280;55021;51.554;17.044;2023-05-17T07:47:08;100966.28;;;13.54;61.56
68199;BME280;55021;51.554;17.044;2023-05-17T08:02:10;100952.50;;;14.23;58.92
68199;BME280;55021;51.554;17.044;2023-05-17T08:17:14;100961.81;;;14.12;57.16
68199;BME280;55021;51.554;17.044;2023-05-17T08:32:16;101000.69;;;13.96;58.85
68199;BME280;55021;51.554;17.044;2023-05-17T08:47:20;101011.25;;;13.66;57.68
68199;BME280;55021;51.554;17.044;2023-05-17T09:02:25;100981.31;;;13.66;61.63
68199;BME280;55021;51.554;17.044;2023-05-17T09:17:31;101012.88;;;14.26;59.14
68199;BME280;55021;51.554;17.044;2023-05-17T09:32:33;100959.56;;;13.66;60.03
68199;BME280;55021;51.554;17.044;2023-05-17T09:47:36;100997.59;;;14.91;58.86
68199;BME280;55021;51.554;17.044;2023-05-17T10:02:39;100984.19;;;14.48;58.30
68199;BME280;55021;51.554;17.044;2023-05-17T10:17:44;100993.94;;;14.09;58.76
68199;BME280;55021;51.554;17.044;2023-05-17T10:32:49;100949.72;;;14.07;58.03
68199;BME280;55021;51.554;17.044;2023-05-17T10:47:54;101005.44;;;14.28;56.19
68199;BME280;55021;51.554;17.044;2023-05-17T11:03:13;101009.81;;;14.63;56.36
68199;BME280;55021;51.554;17.044;2023-05-17T11:18:16;101012.59;;;13.95;57.80
68199;BME280;55021;51.554;17.044;2023-05-17T11:33:19;101024.38;;;14.04;58.63
68199;BME280;55021;51.554;17.044;2023-05-17T11:48:22;101032.19;;;14.07;59.63
68199;BME280;55021;51.554;17.044;2023-05-17T12:03:27;101036.00;;;14.22;58.29
68199;BME280;55021;51.554;17.044;2023-05-17T12:18:46;101042.28;;;13.89;60.46
68199;BME280;55021;51.554;17.044;2023-05-17T12:33:50;101032.22;;;13.56;60.78
68199;BME280;55021;51.554;17.044;2023-05-17T12:49:04;101021.06;;;13.67;59.08
68199;BME280;55021;51.554;17.044;2023-05-17T13:04:08;101048.31;;;14.76;57.18
68199;BME280;55021;51.554;17.044;2023-05-17T13:19:13;100988.63;;;13.40;55.34
68199;BME280;55021;51.554;17.044;2023-05-17T13:34:17;101055.13;;;13.71;56.63
68199;BME280;55021;51.554;17.044;2023-05-17T13:49:20;101066.06;;;14.13;54.49
68199;BME280;55021;51.554;17.044;2023-05-17T14:04:24;101084.78;;;14.49;56.85
68199;BME280;55021;51.554;17.044;2023-05-17T14:19:29;101067.00;;;14.29;55.99
68199;BME280;55021;51.554;17.044;2023-05-17T14:34:32;101119.59;;;14.38;53.31
68199;BME280;55021;51.554;17.044;2023-05-17T14:49:35;101128.22;;;14.59;50.29
68199;BME280;55021;51.554;17.044;2023-05-17T15:04:37;101156.75;;;15.47;48.81
68199;BME280;55021;51.554;17.044;2023-05-17T15:19:40;101164.22;;;14.71;50.66
68199;BME280;55021;51.554;17.044;2023-05-17T15:34:42;101166.97;;;14.79;50.42
68199;BME280;55021;51.554;17.044;2023-05-17T15:49:45;101101.94;;;14.42;53.29
68199;BME280;55021;51.554;17.044;2023-05-17T16:04:48;101096.41;;;13.74;49.84
68199;BME280;55021;51.554;17.044;2023-05-17T16:19:50;101131.94;;;14.92;50.04
68199;BME280;55021;51.554;17.044;2023-05-17T16:34:53;101193.72;;;14.75;48.48
68199;BME280;55021;51.554;17.044;2023-05-17T16:49:56;101193.81;;;13.96;49.83
68199;BME280;55021;51.554;17.044;2023-05-17T17:04:58;101186.44;;;14.32;50.82
68199;BME280;55021;51.554;17.044;2023-05-17T17:20:16;101226.41;;;14.57;49.67
68199;BME280;55021;51.554;17.044;2023-05-17T17:35:18;101223.78;;;14.66;50.68
68199;BME280;55021;51.554;17.044;2023-05-17T17:50:20;101190.47;;;13.77;52.22
68199;BME280;55021;51.554;17.044;2023-05-17T18:05:23;101184.75;;;13.88;51.31
68199;BME280;55021;51.554;17.044;2023-05-17T18:20:25;101194.19;;;13.13;56.94
68199;BME280;55021;51.554;17.044;2023-05-17T18:35:28;101265.44;;;12.70;60.36
68199;BME280;55021;51.554;17.044;2023-05-17T18:50:30;101296.00;;;12.07;63.78
68199;BME280;55021;51.554;17.044;2023-05-17T19:05:33;101332.44;;;11.55;66.99
68199;BME280;55021;51.554;17.044;2023-05-17T19:20:36;101346.38;;;10.80;69.46
68199;BME280;55021;51.554;17.044;2023-05-17T19:35:38;101313.34;;;10.86;68.01
68199;BME280;55021;51.554;17.044;2023-05-17T19:50:41;101329.47;;;10.26;70.49
68199;BME280;55021;51.554;17.044;2023-05-17T20:05:43;101356.34;;;10.80;68.14
68199;BME280;55021;51.554;17.044;2023-05-17T20:20:46;101381.91;;;11.57;64.00
68199;BME280;55021;51.554;17.044;2023-05-17T20:35:48;101385.19;;;11.21;67.36
68199;BME280;55021;51.554;17.044;2023-05-17T20:50:51;101388.00;;;11.80;62.03
68199;BME280;55021;51.554;17.044;2023-05-17T21:05:53;101388.22;;;11.67;62.04
68199;BME280;55021;51.554;17.044;2023-05-17T21:20:56;101422.53;;;11.87;63.14
68199;BME280;55021;51.554;17.044;2023-05-17T21:35:59;101437.63;;;11.80;63.47
68199;BME280;55021;51.554;17.044;2023-05-17T21:51:01;101448.94;;;11.85;63.25
68199;BME280;55021;51.554;17.044;2023-05-17T22:06:04;101454.59;;;12.22;61.75
68199;BME280;55021;51.554;17.044;2023-05-17T22:21:07;101471.00;;;11.81;64.21
68199;BME280;55021;51.554;17.044;2023-05-17T22:36:10;101457.69;;;11.28;65.95
68199;BME280;55021;51.554;17.044;2023-05-17T22:51:13;101477.47;;;11.49;65.62
68199;BME280;55021;51.554;17.044;2023-05-17T23:06:15;101491.91;;;9.91;68.51
68199;BME280;55021;51.554;17.044;2023-05-17T23:21:18;101419.38;;;9.53;64.92
68199;BME280;55021;51.554;17.044;2023-05-17T23:36:21;101509.59;;;9.62;65.02
68199;BME280;55021;51.554;17.044;2023-05-17T23:51:25;101516.44;;;10.32;63.04
